Time;durP1;ratioP1;P1;durP2;ratioP2;P2;SDS_P1;SDS_P2;PMS_P1;PMS_P2;Temp;Humidity;BMP_temperature;BMP_pressure;BME280_temperature;BME280_humidity;BME280_pressure;Samples;Min_cycle;Max_cycle;Signal;HPM_P1;HPM_P2
2022/05/01 00:00:31;;;;;;;41.20;18.60;;;;;;;-99.03;79.80;91253.66;101925;1303;1004661;-25
2022/05/01 00:03:00;;;;;;;49.10;21.30;;;;;;;-128.00;-1.00;-1.00;100003;1302;1004742;-28
2022/05/01 00:05:29;;;;;;;40.20;17.20;;;;;;;-131.34;19.20;23753.89;100069;1303;1004274;-28
2022/05/01 00:07:58;;;;;;;41.20;20.40;;;;;;;-128.00;-1.00;-1.00;99326;1303;1005297;-30
2022/05/01 00:10:27;;;;;;;33.50;18.50;;;;;;;-105.36;10.79;62664.38;100428;1303;1004576;-28
2022/05/01 00:12:56;;;;;;;35.80;16.30;;;;;;;-105.36;45.18;64658.20;100350;1303;1002316;-24
2022/05/01 00:15:25;;;;;;;77.00;32.80;;;;;;;-128.61;30.94;58095.41;100190;1303;1004327;-30
2022/05/01 00:17:54;;;;;;;59.20;23.50;;;;;;;-134.68;39.40;43692.25;100293;1303;1002277;-28
2022/05/01 00:20:23;;;;;;;51.00;22.10;;;;;;;-141.36;79.80;95018.55;100385;1303;1002856;-25
2022/05/01 00:22:52;;;;;;;40.90;21.20;;;;;;;-102.02;4.85;40189.87;100205;1303;1005228;-25
2022/05/01 00:25:21;;;;;;;46.80;23.80;;;;;;;-144.70;85.58;110174.15;100618;1303;929371;-25
2022/05/01 00:27:50;;;;;;;36.80;22.50;;;;;;;-134.68;24.85;41988.23;100035;1302;1005530;-28
2022/05/01 00:30:19;;;;;;;42.10;20.50;;;;;;;-71.10;24.85;47563.09;100248;1303;1004592;-25
2022/05/01 00:37:53;;;;;;;46.40;22.30;;;;;;;-131.34;4.78;23753.96;100196;1302;1005037;-25
2022/05/01 00:40:22;;;;;;;77.00;27.40;;;;;;;-131.34;19.20;23753.89;99987;1303;1004538;-30
2022/05/01 00:42:51;;;;;;;58.60;21.20;;;;;;;-133.19;30.76;50776.39;100219;1303;1005268;-25
2022/05/01 00:45:20;;;;;;;58.80;23.10;;;;;;;-105.36;30.76;63682.77;100434;1303;1003063;-28
2022/05/01 00:47:49;;;;;;;38.70;17.80;;;;;;;-71.10;39.40;38909.52;100217;1303;1004875;-28
2022/05/01 00:50:19;;;;;;;71.10;26.40;;;;;;;-131.34;13.07;23753.89;100077;1303;1004951;-25
2022/05/01 00:52:49;;;;;;;130.70;39.10;;;;;;;-131.34;4.65;31401.72;100059;1303;1005025;-28
2022/05/01 00:55:18;;;;;;;119.60;34.10;;;;;;;-128.00;-1.00;-1.00;100066;1302;1005098;-28
2022/05/01 00:57:47;;;;;;;99.90;24.10;;;;;;;-128.00;-1.00;-1.00;100076;1303;1003589;-25
2022/05/01 01:00:18;;;;;;;110.40;26.90;;;;;;;-131.34;19.20;23753.86;100091;1303;1004996;-28
2022/05/01 01:02:47;;;;;;;171.00;41.90;;;;;;;-131.34;4.65;23753.99;99969;1303;1003672;-24
2022/05/01 01:05:16;;;;;;;143.90;30.50;;;;;;;-128.00;-1.00;-1.00;99868;1303;1004755;-28
2022/05/01 01:07:45;;;;;;;107.00;27.20;;;;;;;-116.76;59.60;73294.08;100315;1302;1004285;-25
2022/05/01 01:10:14;;;;;;;71.40;19.60;;;;;;;-102.02;24.98;38920.50;100202;1303;1004745;-25
2022/05/01 01:15:16;;;;;;;31.30;9.60;;;;;;;-71.20;36.54;82565.83;101073;1302;1003944;-27
2022/05/01 01:17:46;;;;;;;30.70;9.90;;;;;;;-102.02;24.98;43743.86;100430;1303;1004050;-27
2022/05/01 01:20:18;;;;;;;35.70;13.60;;;;;;;-55.07;56.74;99039.03;100773;1303;963505;-27
2022/05/01 01:22:47;;;;;;;43.30;17.00;;;;;;;-79.37;71.03;114957.40;100971;1303;865030;-25
2022/05/01 01:25:19;;;;;;;52.80;17.70;;;;;;;-43.37;22.13;76445.41;101600;1303;1004091;-28
2022/05/01 01:27:49;;;;;;;40.80;15.80;;;;;;;-46.71;65.04;98624.98;101029;1303;821901;-23
2022/05/01 01:32:51;;;;;;;37.80;13.70;;;;;;;-82.60;34.44;102666.23;100992;1303;1004678;-24
2022/05/01 01:35:23;;;;;;;42.00;16.00;;;;;;;-46.45;42.53;93240.70;101671;1303;656944;-25
2022/05/01 01:37:53;;;;;;;30.90;14.40;;;;;;;-69.97;42.25;111243.66;101091;1303;819556;-29
2022/05/01 01:40:23;;;;;;;24.50;11.20;;;;;;;-79.38;36.67;118931.90;101661;1303;649505;-26
2022/05/01 01:42:54;;;;;;;35.60;15.20;;;;;;;-46.71;40.36;122656.21;101443;1303;925606;-28
2022/05/01 01:45:25;;;;;;;35.70;12.50;;;;;;;-76.04;36.41;87488.77;101068;1303;1004571;-24
2022/05/01 01:47:57;;;;;;;18.80;10.60;;;;;;;-108.70;65.38;77820.14;101429;1303;1003856;-28
2022/05/01 01:50:27;;;;;;;19.60;9.80;;;;;;;-76.04;36.54;87488.77;101368;1303;1004636;-27
2022/05/01 01:52:56;;;;;;;15.60;7.50;;;;;;;-46.71;56.74;102644.47;101018;1303;863305;-25
2022/05/01 01:55:25;;;;;;;20.50;9.60;;;;;;;-79.37;42.33;102220.19;101173;1302;858239;-29
2022/05/01 01:57:54;;;;;;;18.80;8.70;;;;;;;-58.11;36.74;97005.98;101213;1303;758275;-28
2022/05/01 02:00:23;;;;;;;17.80;10.20;;;;;;;-13.92;56.74;112858.92;101610;1303;643094;-25
2022/05/01 02:02:57;;;;;;;16.00;7.90;;;;;;;-76.04;50.96;95136.48;101370;1303;1003479;-25
2022/05/01 02:05:26;;;;;;;23.20;11.00;;;;;;;-87.44;36.54;95018.52;100943;1303;1004479;-25
2022/05/01 02:07:56;;;;;;;20.50;10.00;;;;;;;-109.07;56.82;128451.55;101218;1303;668402;-25
2022/05/01 02:10:25;;;;;;;28.20;9.40;;;;;;;-107.20;85.45;114957.30;101648;1303;659843;-25
2022/05/01 02:12:54;;;;;;;18.20;9.70;;;;;;;-112.04;85.58;115008.23;101226;1303;930096;-25
2022/05/01 02:15:23;;;;;;;13.50;8.20;;;;;;;-90.78;85.58;124457.85;101776;1303;745529;-28
2022/05/01 02:17:52;;;;;;;19.80;9.30;;;;;;;-46.71;57.03;111616.15;101578;1302;763153;-28
2022/05/01 02:20:21;;;;;;;21.90;11.80;;;;;;;-58.11;71.03;124727.20;101328;1303;661270;-28
2022/05/01 02:22:50;;;;;;;29.00;14.50;;;;;;;-79.36;71.45;102531.86;102056;1303;557898;-25
2022/05/01 02:27:51;;;;;;;16.10;10.60;;;;;;;-108.69;36.41;78126.02;101507;1302;1004078;-28
2022/05/01 02:30:21;;;;;;;29.00;14.00;;;;;;;-46.71;71.37;99130.79;101899;1303;515145;-27
2022/05/01 02:32:50;;;;;;;16.70;10.40;;;;;;;-4.19;42.54;62575.32;101585;1302;613023;-29
2022/05/01 02:35:19;;;;;;;36.40;12.10;;;;;;;-46.71;22.33;110292.36;101708;1302;709566;-25
2022/05/01 02:37:48;;;;;;;164.00;87.00;;;;;;;-14.05;42.54;107478.52;101801;1303;613437;-28
2022/05/01 02:40:17;;;;;;;112.00;58.80;;;;;;;-102.63;56.95;97005.98;102226;1303;512532;-25
2022/05/01 02:42:46;;;;;;;202.30;104.70;;;;;;;-74.54;42.33;100200.30;102031;1303;628142;-25
2022/05/01 02:45:15;;;;;;;24.30;10.50;;;;;;;-15.80;65.61;87633.75;101969;1302;537136;-29
2022/05/01 02:47:44;;;;;;;14.90;8.00;;;;;;;-37.31;42.37;107519.31;102261;1303;540664;-28
2022/05/01 02:50:13;;;;;;;20.90;8.20;;;;;;;-46.71;42.33;85922.02;102167;1303;444690;-26
2022/05/01 02:52:42;;;;;;;18.10;9.70;;;;;;;-46.71;37.13;109143.34;101861;1303;513472;-28
2022/05/01 02:55:11;;;;;;;44.70;28.30;;;;;;;-46.71;40.78;100380.98;102443;1302;407482;-27
2022/05/01 02:57:41;;;;;;;19.90;12.50;;;;;;;-79.37;71.16;117039.08;102660;1303;335687;-28
2022/05/01 03:00:16;;;;;;;14.30;8.80;;;;;;;-79.38;56.61;115008.55;102363;1303;438546;-27
2022/05/01 03:02:46;;;;;;;16.40;8.10;;;;;;;-79.25;56.82;117002.45;102388;1303;404946;-28
2022/05/01 03:05:16;;;;;;;15.80;7.60;;;;;;;-79.38;36.74;103289.68;102119;1303;878301;-25
2022/05/01 03:07:44;;;;;;;24.10;14.30;;;;;;;-79.38;56.95;115008.60;102368;1303;512026;-25
2022/05/01 03:10:13;;;;;;;13.70;7.70;;;;;;;-69.97;51.03;102644.40;102461;1303;407173;-31
2022/05/01 03:12:42;;;;;;;13.20;7.10;;;;;;;-46.71;71.16;120692.95;102461;1303;430304;-24
2022/05/01 03:15:12;;;;;;;17.20;7.10;;;;;;;-112.04;65.58;120870.79;102368;1303;353968;-31
2022/05/01 03:22:46;;;;;;;131.80;83.60;;;;;;;-76.04;36.41;83723.89;101431;1303;1003482;-28
2022/05/01 03:25:14;;;;;;;132.90;73.30;;;;;;;-58.19;56.74;103130.89;101986;1303;614123;-28
2022/05/01 03:27:43;;;;;;;119.90;62.90;;;;;;;-81.12;69.19;110174.15;102039;1302;518261;-25
2022/05/01 03:32:45;;;;;;;26.70;13.50;;;;;;;-106.94;65.58;122656.27;101743;1302;561513;-26
2022/05/01 03:35:15;;;;;;;79.00;42.70;;;;;;;-79.38;51.16;106409.40;102327;1302;444948;-25
2022/05/01 03:37:44;;;;;;;14.00;9.60;;;;;;;-141.36;65.38;92277.62;101986;1303;1004234;-28
2022/05/01 03:40:14;;;;;;;59.80;32.20;;;;;;;-79.38;71.19;101508.01;102154;1303;512413;-28
2022/05/01 03:42:44;;;;;;;169.80;78.00;;;;;;;-79.38;56.88;115008.52;102121;1303;629080;-24
2022/05/01 03:45:13;;;;;;;114.00;64.70;;;;;;;-46.71;64.90;99130.81;102602;1303;333578;-25
2022/05/01 03:47:42;;;;;;;64.90;35.50;;;;;;;-79.37;56.62;112267.61;102696;1303;323741;-29
2022/05/01 03:50:11;;;;;;;50.00;24.80;;;;;;;-112.04;51.16;115103.42;102876;1303;308247;-27
2022/05/01 03:52:40;;;;;;;64.40;37.50;;;;;;;-46.71;36.74;106409.30;102655;1303;345415;-25
2022/05/01 03:55:08;;;;;;;49.80;31.00;;;;;;;16.86;42.33;98828.29;102449;1303;339261;-28
2022/05/01 03:57:38;;;;;;;92.10;54.80;;;;;;;-74.54;71.03;107689.64;102737;1303;254372;-25
2022/05/01 04:00:10;;;;;;;14.80;7.80;;;;;;;-79.38;56.61;101161.23;102530;1303;345018;-27
2022/05/01 04:02:42;;;;;;;10.60;7.90;;;;;;;-46.71;56.74;107478.77;102568;1301;342948;-28
2022/05/01 04:05:12;;;;;;;12.50;7.00;;;;;;;-46.71;56.74;103924.65;102707;1303;487810;-25
2022/05/01 04:07:42;;;;;;;29.50;6.90;;;;;;;-112.04;85.58;118773.41;102957;1303;219997;-29
2022/05/01 04:10:11;;;;;;;14.30;6.60;;;;;;;-41.88;42.33;89516.38;102748;1303;241718;-25
2022/05/01 04:12:42;;;;;;;12.50;7.80;;;;;;;-79.37;42.37;108451.40;102891;1303;233783;-24
2022/05/01 04:15:14;;;;;;;10.40;6.70;;;;;;;-46.71;22.19;108728.84;102603;1303;309506;-27
2022/05/01 04:17:43;;;;;;;12.60;7.20;;;;;;;-14.05;42.33;106103.04;102435;1303;304570;-28
2022/05/01 04:20:13;;;;;;;11.40;7.10;;;;;;;15.11;51.16;114885.55;102796;1301;250798;-30
2022/05/01 04:22:44;;;;;;;13.20;7.80;;;;;;;-46.71;56.95;118891.38;102704;1303;420566;-30
2022/05/01 04:25:18;;;;;;;15.10;8.50;;;;;;;-14.05;42.33;109516.48;102519;1303;500187;-30
2022/05/01 04:27:48;;;;;;;18.90;9.80;;;;;;;-46.71;42.33;108823.64;102508;1303;704356;-31
2022/05/01 04:30:18;;;;;;;21.10;9.50;;;;;;;-46.71;22.19;114057.25;102869;1303;490336;-27
2022/05/01 04:32:49;;;;;;;23.90;12.50;;;;;;;-79.37;27.69;115337.20;102832;1303;463368;-28
2022/05/01 04:35:29;;;;;;;22.30;14.10;;;;;;;-14.05;42.33;103713.89;102879;1303;242138;-25
2022/05/01 04:38:00;;;;;;;14.80;10.40;;;;;;;49.52;42.33;103713.89;103404;1303;92438;-25
2022/05/01 04:40:31;;;;;;;25.00;10.00;;;;;;;11.36;50.68;95054.20;103408;1303;24300;-23
2022/05/01 04:43:02;;;;;;;19.30;10.10;;;;;;;6.57;65.70;90790.31;103612;1302;24932;-27
2022/05/01 04:45:31;;;;;;;19.40;10.40;;;;;;;6.60;65.60;99850.20;103589;1303;24316;-25
2022/05/01 04:48:01;;;;;;;18.10;9.70;;;;;;;6.83;66.68;99858.47;103539;1302;23863;-28
2022/05/01 04:50:30;;;;;;;14.70;9.10;;;;;;;6.98;66.56;90772.86;103590;1303;22910;-28
2022/05/01 04:53:01;;;;;;;21.50;9.70;;;;;;;7.34;65.87;99852.11;103612;1302;25374;-29
2022/05/01 04:55:30;;;;;;;23.80;12.10;;;;;;;7.57;65.03;99854.84;103600;1303;25118;-29
2022/05/01 04:57:59;;;;;;;15.00;9.50;;;;;;;7.63;64.23;99846.09;103520;1303;22491;-29
2022/05/01 05:00:28;;;;;;;14.20;7.80;;;;;;;7.63;63.88;99842.90;103578;1303;22587;-29
2022/05/01 05:02:58;;;;;;;15.70;8.40;;;;;;;7.64;63.72;99842.50;103628;1303;24189;-28
2022/05/01 05:05:28;;;;;;;10.50;8.40;;;;;;;7.69;63.84;99845.12;103732;1303;22603;-29
2022/05/01 05:09:53;;;;;;;13.00;8.70;;;;;;;7.73;63.69;99840.42;103361;1303;24244;-24
2022/05/01 05:10:46;;;;;;;15.70;9.60;;;;;;;7.86;63.36;99844.80;103557;1303;23902;-25
2022/05/01 05:13:21;;;;;;;14.40;8.60;;;;;;;7.99;63.28;99843.52;103540;1303;22793;-25
2022/05/01 05:15:51;;;;;;;17.50;9.90;;;;;;;8.10;63.10;99843.88;103496;1303;22631;-26
2022/05/01 05:18:20;;;;;;;14.90;8.10;;;;;;;8.21;63.13;99851.19;103565;1303;22502;-25
2022/05/01 05:20:49;;;;;;;57.50;27.00;;;;;;;8.42;63.48;99852.73;103575;1303;25104;-25
2022/05/01 05:23:18;;;;;;;45.30;20.40;;;;;;;8.71;62.78;99853.61;103577;1303;24996;-25
2022/05/01 05:25:47;;;;;;;25.60;14.00;;;;;;;9.08;62.95;99858.63;103480;1303;23636;-25
2022/05/01 05:28:18;;;;;;;21.00;10.70;;;;;;;9.41;62.86;99859.41;103533;1303;23763;-29
2022/05/01 05:30:48;;;;;;;15.60;8.30;;;;;;;9.48;63.58;99861.28;103621;1303;23853;-28
2022/05/01 05:33:18;;;;;;;16.40;10.80;;;;;;;9.68;65.09;95254.78;103580;1303;26291;-24
2022/05/01 05:35:47;;;;;;;23.60;12.50;;;;;;;9.72;65.30;90644.22;103534;1303;22623;-29
2022/05/01 05:38:16;;;;;;;20.50;11.80;;;;;;;-21.06;65.61;102812.04;103556;1303;23789;-25
2022/05/01 05:40:45;;;;;;;22.40;13.00;;;;;;;9.85;65.61;92500.23;103523;1303;35376;-28
2022/05/01 05:43:14;;;;;;;24.00;11.20;;;;;;;9.85;65.61;91931.21;103511;1303;34699;-28
2022/05/01 05:45:43;;;;;;;20.00;9.20;;;;;;;9.85;65.61;99859.66;103258;1303;137652;-26
2022/05/01 05:48:12;;;;;;;22.90;15.90;;;;;;;9.85;65.61;103642.48;103157;1303;138990;-28
2022/05/01 05:50:41;;;;;;;45.90;21.00;;;;;;;-4.60;65.61;96840.92;103010;1303;145177;-28
2022/05/01 05:53:10;;;;;;;9.80;6.90;;;;;;;-21.06;62.76;92362.45;102984;1303;235625;-28
2022/05/01 05:55:39;;;;;;;11.70;6.30;;;;;;;-21.06;62.76;87317.93;102861;1303;243147;-28
2022/05/01 05:58:08;;;;;;;9.70;7.10;;;;;;;-113.79;75.43;117021.38;102396;1303;348253;-26
2022/05/01 06:00:37;;;;;;;12.50;9.40;;;;;;;-21.06;71.96;118463.11;101896;1303;543048;-25
2022/05/01 06:03:06;;;;;;;12.20;9.10;;;;;;;-4.60;63.54;95680.61;102074;1303;544009;-25
2022/05/01 06:05:35;;;;;;;17.10;14.00;;;;;;;-115.95;86.24;114912.33;101449;1303;656172;-24
2022/05/01 06:08:05;;;;;;;23.50;9.80;;;;;;;-113.78;59.37;107552.95;101540;1303;817032;-26
2022/05/01 06:10:33;;;;;;;18.70;14.90;;;;;;;-82.88;59.90;115826.06;101661;1303;624999;-24
2022/05/01 06:13:02;;;;;;;12.40;7.40;;;;;;;-82.88;77.30;110377.55;100457;1303;957152;-24
2022/05/01 06:15:31;;;;;;;13.90;8.10;;;;;;;-114.88;19.20;23753.89;99600;1302;1005465;-27
2022/05/01 06:18:00;;;;;;;10.80;6.60;;;;;;;-128.00;-1.00;-1.00;99989;1303;1004518;-27
2022/05/01 06:20:29;;;;;;;15.30;5.50;;;;;;;-128.00;-1.00;-1.00;100021;1303;1004485;-25
2022/05/01 06:22:58;;;;;;;6.50;4.90;;;;;;;-128.00;-1.00;-1.00;100042;1302;1004847;-25
2022/05/01 06:25:27;;;;;;;7.00;4.60;;;;;;;-128.00;-1.00;-1.00;100030;1303;1005295;-27
2022/05/01 06:27:56;;;;;;;11.40;5.10;;;;;;;-128.00;-1.00;-1.00;100023;1303;1005320;-24
2022/05/01 06:30:25;;;;;;;12.10;5.60;;;;;;;-128.00;-1.00;-1.00;100017;1303;1004649;-25
2022/05/01 06:32:54;;;;;;;6.90;3.70;;;;;;;-128.00;-1.00;-1.00;100058;1303;1004174;-24
2022/05/01 06:35:24;;;;;;;9.90;5.40;;;;;;;-128.00;-1.00;-1.00;100022;1302;1004771;-28
2022/05/01 06:37:53;;;;;;;9.20;5.20;;;;;;;-128.00;-1.00;-1.00;100037;1303;1005246;-28
2022/05/01 06:40:22;;;;;;;9.80;7.90;;;;;;;-128.00;-1.00;-1.00;100048;1303;1004921;-28
2022/05/01 06:42:51;;;;;;;15.40;8.40;;;;;;;-128.00;-1.00;-1.00;100043;1303;1004676;-28
2022/05/01 06:45:20;;;;;;;22.40;17.30;;;;;;;-128.00;-1.00;-1.00;100071;1303;1004841;-25
2022/05/01 06:47:49;;;;;;;33.60;28.40;;;;;;;-128.00;-1.00;-1.00;100102;1303;1004468;-25
2022/05/01 06:50:18;;;;;;;16.10;10.10;;;;;;;-128.00;-1.00;-1.00;99860;1303;1004264;-29
2022/05/01 06:52:47;;;;;;;10.00;6.20;;;;;;;-128.00;-1.00;-1.00;100023;1303;1004386;-28
2022/05/01 06:55:18;;;;;;;17.40;11.90;;;;;;;-128.00;-1.00;-1.00;100037;1303;1004671;-26
2022/05/01 06:57:47;;;;;;;17.30;7.70;;;;;;;-128.00;-1.00;-1.00;99850;1303;1005398;-27
2022/05/01 07:00:17;;;;;;;7.70;5.00;;;;;;;-128.00;-1.00;-1.00;100060;1303;1004417;-28
2022/05/01 07:02:48;;;;;;;9.00;6.50;;;;;;;-128.00;-1.00;-1.00;100000;1303;1004622;-25
2022/05/01 07:05:18;;;;;;;17.10;7.80;;;;;;;-128.00;-1.00;-1.00;99827;1303;1004977;-24
2022/05/01 07:07:50;;;;;;;14.60;7.30;;;;;;;-128.00;-1.00;-1.00;100008;1303;1004151;-25
2022/05/01 07:10:19;;;;;;;9.70;6.40;;;;;;;-128.00;-1.00;-1.00;100057;1303;1004147;-29
2022/05/01 07:12:48;;;;;;;28.90;7.50;;;;;;;-128.00;-1.00;-1.00;100012;1303;1005691;-25
2022/05/01 07:15:17;;;;;;;18.20;5.40;;;;;;;-128.00;-1.00;-1.00;99825;1303;1004056;-28
2022/05/01 07:17:46;;;;;;;10.50;5.50;;;;;;;-128.00;-1.00;-1.00;99951;1303;1003947;-26
2022/05/01 07:20:15;;;;;;;8.70;5.70;;;;;;;-128.00;-1.00;-1.00;100043;1303;1004655;-30
2022/05/01 07:22:44;;;;;;;10.70;6.10;;;;;;;-128.00;-1.00;-1.00;100005;1303;1005089;-26
2022/05/01 07:25:13;;;;;;;10.30;6.70;;;;;;;-128.00;-1.00;-1.00;100023;1303;1004223;-30
2022/05/01 07:27:42;;;;;;;10.50;7.20;;;;;;;-128.00;-1.00;-1.00;100040;1303;1004367;-27
2022/05/01 07:30:11;;;;;;;15.50;7.70;;;;;;;-128.00;-1.00;-1.00;100054;1303;1004467;-30
2022/05/01 07:32:40;;;;;;;16.00;6.00;;;;;;;-128.00;-1.00;-1.00;100029;1303;1004974;-29
2022/05/01 07:35:09;;;;;;;8.80;6.00;;;;;;;-128.00;-1.00;-1.00;100003;1303;1004633;-25
2022/05/01 07:37:38;;;;;;;25.60;10.60;;;;;;;-128.00;-1.00;-1.00;100026;1303;1004952;-26
2022/05/01 07:40:09;;;;;;;18.90;9.80;;;;;;;-128.00;-1.00;-1.00;100024;1303;1004000;-28
2022/05/01 07:42:38;;;;;;;9.40;6.20;;;;;;;-128.00;-1.00;-1.00;99974;1301;1004881;-24
2022/05/01 07:45:08;;;;;;;16.90;7.60;;;;;;;-128.00;-1.00;-1.00;100012;1303;1005291;-25
2022/05/01 07:47:37;;;;;;;10.60;6.40;;;;;;;-128.00;-1.00;-1.00;100079;1303;1005545;-29
2022/05/01 07:50:08;;;;;;;8.40;5.80;;;;;;;-128.00;-1.00;-1.00;100047;1303;1004165;-28
2022/05/01 07:52:37;;;;;;;12.10;6.00;;;;;;;-128.00;-1.00;-1.00;100002;1303;1004840;-28
2022/05/01 07:55:07;;;;;;;9.60;6.50;;;;;;;-128.00;-1.00;-1.00;100073;1303;1004865;-28
2022/05/01 07:57:36;;;;;;;11.90;7.10;;;;;;;-128.00;-1.00;-1.00;100091;1303;1004990;-25
2022/05/01 08:00:05;;;;;;;12.40;7.30;;;;;;;-128.00;-1.00;-1.00;100082;1303;1004429;-28
2022/05/01 08:04:27;;;;;;;16.50;7.30;;;;;;;-128.00;-1.00;-1.00;99983;1302;1004968;-28
2022/05/01 08:05:24;;;;;;;9.20;4.80;;;;;;;-128.00;-1.00;-1.00;100002;1302;1004827;-25
2022/05/01 08:07:53;;;;;;;9.90;6.60;;;;;;;-128.00;-1.00;-1.00;100065;1303;1004618;-28
2022/05/01 08:10:23;;;;;;;6.70;5.20;;;;;;;-128.00;-1.00;-1.00;99990;1303;1004515;-24
2022/05/01 08:12:52;;;;;;;7.00;4.30;;;;;;;-128.00;-1.00;-1.00;100008;1303;1004107;-31
2022/05/01 08:15:21;;;;;;;7.90;6.90;;;;;;;-128.00;-1.00;-1.00;99998;1303;1005101;-27
2022/05/01 08:17:50;;;;;;;8.80;6.40;;;;;;;-128.00;-1.00;-1.00;100000;1303;1004702;-27
2022/05/01 08:22:51;;;;;;;164.40;80.10;;;;;;;-128.00;-1.00;-1.00;100018;1303;1004841;-26
2022/05/01 08:25:21;;;;;;;14.80;8.90;;;;;;;-128.00;-1.00;-1.00;100088;1303;1003999;-29
2022/05/01 08:27:50;;;;;;;12.40;9.30;;;;;;;-128.00;-1.00;-1.00;100056;1303;1003141;-25
2022/05/01 08:30:19;;;;;;;12.00;7.30;;;;;;;-128.00;-1.00;-1.00;100094;1302;1003885;-25
2022/05/01 08:32:48;;;;;;;7.30;5.60;;;;;;;-128.00;-1.00;-1.00;100099;1303;1004014;-25
2022/05/01 08:35:17;;;;;;;13.60;7.30;;;;;;;-128.00;-1.00;-1.00;100083;1303;1003385;-24
2022/05/01 08:37:46;;;;;;;6.50;5.10;;;;;;;-128.00;-1.00;-1.00;100112;1303;1003888;-30
2022/05/01 08:40:15;;;;;;;8.50;5.40;;;;;;;-128.00;-1.00;-1.00;100120;1303;1003067;-26
2022/05/01 08:42:44;;;;;;;11.40;7.00;;;;;;;-128.00;-1.00;-1.00;100072;1303;1003414;-26
2022/05/01 08:45:13;;;;;;;6.20;5.10;;;;;;;-128.00;-1.00;-1.00;99957;1303;1004035;-30
2022/05/01 08:47:50;;;;;;;8.00;5.80;;;;;;;-128.00;-1.00;-1.00;100074;1303;1003519;-30
2022/05/01 08:50:20;;;;;;;8.70;6.20;;;;;;;-128.00;-1.00;-1.00;100076;1303;1003122;-30
2022/05/01 08:52:49;;;;;;;6.30;5.50;;;;;;;-128.00;-1.00;-1.00;100053;1303;1004380;-26
2022/05/01 08:55:18;;;;;;;9.30;6.90;;;;;;;-128.00;-1.00;-1.00;100158;1303;1003175;-26
2022/05/01 08:57:47;;;;;;;5.20;4.10;;;;;;;-128.00;-1.00;-1.00;100095;1303;1003247;-30
2022/05/01 09:00:17;;;;;;;10.00;5.70;;;;;;;-128.00;-1.00;-1.00;100085;1303;1003473;-28
2022/05/01 09:02:46;;;;;;;6.60;5.10;;;;;;;-128.00;-1.00;-1.00;100060;1303;1003718;-24
2022/05/01 09:05:16;;;;;;;7.80;5.70;;;;;;;-128.00;-1.00;-1.00;100109;1303;1003821;-24
2022/05/01 09:07:45;;;;;;;10.00;7.20;;;;;;;-128.00;-1.00;-1.00;100007;1303;1004597;-28
2022/05/01 09:10:14;;;;;;;9.90;4.60;;;;;;;-128.00;-1.00;-1.00;100074;1303;1003350;-30
2022/05/01 09:15:23;;;;;;;5.90;4.60;;;;;;;-128.00;-1.00;-1.00;100098;1303;1003903;-30
2022/05/01 09:17:58;;;;;;;6.10;5.20;;;;;;;-128.00;-1.00;-1.00;100086;1303;1003435;-27
2022/05/01 09:20:27;;;;;;;9.20;6.30;;;;;;;-128.00;-1.00;-1.00;100085;1303;1003820;-26
2022/05/01 09:22:58;;;;;;;8.30;7.30;;;;;;;-128.00;-1.00;-1.00;99961;1303;1004496;-24
2022/05/01 09:25:27;;;;;;;10.70;8.60;;;;;;;-128.00;-1.00;-1.00;100075;1303;1003463;-24
2022/05/01 09:27:59;;;;;;;5.50;4.80;;;;;;;-128.00;-1.00;-1.00;100048;1303;1003770;-27
2022/05/01 09:30:31;;;;;;;9.50;4.50;;;;;;;-128.00;-1.00;-1.00;100047;1303;1003560;-30
2022/05/01 09:33:01;;;;;;;4.00;3.40;;;;;;;-128.00;-1.00;-1.00;100079;1303;1004016;-24
2022/05/01 09:35:32;;;;;;;18.00;6.70;;;;;;;-128.00;-1.00;-1.00;100142;1302;1004333;-24
2022/05/01 09:38:08;;;;;;;6.60;5.90;;;;;;;-128.00;-1.00;-1.00;100114;1303;1004048;-24
2022/05/01 09:40:37;;;;;;;6.40;4.60;;;;;;;-128.00;-1.00;-1.00;100084;1303;1003572;-25
2022/05/01 09:43:06;;;;;;;6.30;4.40;;;;;;;-128.00;-1.00;-1.00;100125;1303;1002743;-29
2022/05/01 09:45:35;;;;;;;5.50;4.30;;;;;;;-128.00;-1.00;-1.00;100056;1303;1005051;-25
2022/05/01 09:48:06;;;;;;;6.20;3.50;;;;;;;-128.00;-1.00;-1.00;100122;1303;1004779;-25
2022/05/01 09:50:39;;;;;;;6.00;4.60;;;;;;;-128.00;-1.00;-1.00;100067;1303;1003495;-29
2022/05/01 09:53:08;;;;;;;4.40;3.90;;;;;;;-128.00;-1.00;-1.00;100106;1303;1004390;-29
2022/05/01 09:55:37;;;;;;;4.70;4.10;;;;;;;-128.00;-1.00;-1.00;100065;1303;1002953;-25
2022/05/01 09:58:07;;;;;;;5.00;3.70;;;;;;;-128.00;-1.00;-1.00;100106;1303;1003701;-29
2022/05/01 10:00:39;;;;;;;7.10;5.10;;;;;;;-128.00;-1.00;-1.00;100103;1303;1004329;-29
2022/05/01 10:03:15;;;;;;;9.70;4.50;;;;;;;-128.00;-1.00;-1.00;100159;1303;1003616;-25
2022/05/01 10:05:44;;;;;;;6.00;3.80;;;;;;;-128.00;-1.00;-1.00;100094;1303;1004000;-25
2022/05/01 10:08:13;;;;;;;4.70;2.90;;;;;;;-128.00;-1.00;-1.00;100049;1303;1004340;-24
2022/05/01 10:10:42;;;;;;;4.40;3.50;;;;;;;-128.00;-1.00;-1.00;100135;1303;1003881;-28
2022/05/01 10:13:13;;;;;;;5.50;2.70;;;;;;;-128.00;-1.00;-1.00;100082;1303;1003972;-28
2022/05/01 10:15:42;;;;;;;4.90;4.40;;;;;;;-128.00;-1.00;-1.00;100110;1303;1004609;-28
2022/05/01 10:18:11;;;;;;;7.80;3.50;;;;;;;-128.00;-1.00;-1.00;100144;1303;1003377;-28
2022/05/01 10:20:41;;;;;;;4.80;3.80;;;;;;;-128.00;-1.00;-1.00;100078;1303;1003255;-28
2022/05/01 10:23:11;;;;;;;6.00;3.40;;;;;;;-128.00;-1.00;-1.00;100085;1302;1005407;-28
2022/05/01 10:25:45;;;;;;;6.70;3.90;;;;;;;-128.00;-1.00;-1.00;100006;1303;1003526;-24
2022/05/01 10:28:20;;;;;;;8.00;3.80;;;;;;;-128.00;-1.00;-1.00;100069;1303;1003791;-28
2022/05/01 10:33:50;;;;;;;4.40;3.70;;;;;;;-128.00;-1.00;-1.00;100081;1302;1004571;-28
2022/05/01 10:36:25;;;;;;;8.40;3.80;;;;;;;-128.00;-1.00;-1.00;100091;1303;1003166;-29
2022/05/01 10:39:01;;;;;;;7.30;4.20;;;;;;;-128.00;-1.00;-1.00;100091;1303;1003680;-29
2022/05/01 10:41:31;;;;;;;3.30;2.70;;;;;;;-128.00;-1.00;-1.00;100172;1303;1003167;-25
2022/05/01 10:44:02;;;;;;;9.20;4.40;;;;;;;-128.00;-1.00;-1.00;100069;1303;1003157;-29
2022/05/01 10:46:32;;;;;;;11.70;9.80;;;;;;;-128.00;-1.00;-1.00;100051;1302;1003680;-29
2022/05/01 10:49:04;;;;;;;4.70;3.40;;;;;;;-128.00;-1.00;-1.00;100075;1303;1004215;-29
2022/05/01 10:51:42;;;;;;;7.80;3.40;;;;;;;-128.00;-1.00;-1.00;100117;1303;1002659;-28
2022/05/01 10:54:33;;;;;;;3.20;2.90;;;;;;;-128.00;-1.00;-1.00;100149;1303;1005354;-25
2022/05/01 10:57:06;;;;;;;3.30;2.90;;;;;;;-128.00;-1.00;-1.00;100111;1303;1003346;-25
2022/05/01 10:59:42;;;;;;;7.50;3.50;;;;;;;-128.00;-1.00;-1.00;100108;1303;1004371;-25
2022/05/01 11:02:18;;;;;;;5.20;4.40;;;;;;;-128.00;-1.00;-1.00;100087;1303;1003881;-25
2022/05/01 11:04:46;;;;;;;3.50;3.00;;;;;;;-128.00;-1.00;-1.00;100103;1303;1003432;-24
2022/05/01 11:07:17;;;;;;;5.20;3.10;;;;;;;-128.00;-1.00;-1.00;100020;1302;1003563;-24
2022/05/01 11:09:47;;;;;;;5.40;4.20;;;;;;;-128.00;-1.00;-1.00;100124;1303;1003614;-24
2022/05/01 11:12:19;;;;;;;12.50;9.20;;;;;;;-128.00;-1.00;-1.00;100271;1303;1003790;-25
2022/05/01 11:14:54;;;;;;;15.80;14.50;;;;;;;-128.00;-1.00;-1.00;100077;1303;1003396;-28
2022/05/01 11:17:27;;;;;;;4.90;2.80;;;;;;;-128.00;-1.00;-1.00;100179;1300;1003177;-28
2022/05/01 11:20:03;;;;;;;5.20;2.20;;;;;;;-128.00;-1.00;-1.00;100089;1303;1003461;-24
2022/05/01 11:22:32;;;;;;;3.50;2.40;;;;;;;-128.00;-1.00;-1.00;100061;1303;1004101;-25
2022/05/01 11:25:02;;;;;;;4.60;2.80;;;;;;;-128.00;-1.00;-1.00;100112;1303;1004212;-24
2022/05/01 11:27:38;;;;;;;17.50;5.10;;;;;;;-128.00;-1.00;-1.00;100004;1303;1003398;-25
2022/05/01 11:30:07;;;;;;;8.10;2.90;;;;;;;-128.00;-1.00;-1.00;100044;1303;1003698;-24
2022/05/01 11:32:43;;;;;;;4.20;3.30;;;;;;;-128.00;-1.00;-1.00;100071;1303;1003435;-25
2022/05/01 11:35:12;;;;;;;3.50;3.00;;;;;;;-128.00;-1.00;-1.00;100061;1303;1004220;-28
2022/05/01 11:37:48;;;;;;;4.90;2.80;;;;;;;-128.00;-1.00;-1.00;100171;1302;1003314;-29
2022/05/01 11:40:22;;;;;;;4.80;3.50;;;;;;;-128.00;-1.00;-1.00;100122;1303;1004216;-31
2022/05/01 11:42:51;;;;;;;4.70;3.60;;;;;;;-128.00;-1.00;-1.00;100065;1302;1003357;-29
2022/05/01 11:45:23;;;;;;;4.30;3.20;;;;;;;-128.00;-1.00;-1.00;99944;1303;1003878;-29